Time;durP1;ratioP1;P1;durP2;ratioP2;P2;SDS_P1;SDS_P2;PMS_P1;PMS_P2;Temp;Humidity;BMP_temperature;BMP_pressure;BME280_temperature;BME280_humidity;BME280_pressure;Samples;Min_cycle;Max_cycle;Signal;HPM_P1;HPM_P2
2022/04/24 00:00:46;;;;;;;34.30;12.40;;;;;;;11.92;51.50;99770.30;117335;1186;22964;-47
2022/04/24 00:03:16;;;;;;;29.90;12.50;;;;;;;11.89;51.50;99764.95;117282;1186;23474;-56
2022/04/24 00:05:44;;;;;;;31.00;12.20;;;;;;;11.85;51.54;99761.89;117366;1186;21875;-47
2022/04/24 00:08:14;;;;;;;27.90;11.50;;;;;;;11.83;51.53;99761.24;117313;1183;21840;-56
2022/04/24 00:10:42;;;;;;;33.30;12.50;;;;;;;11.78;51.49;99755.76;117352;1186;22305;-47
2022/04/24 00:13:12;;;;;;;35.00;11.70;;;;;;;11.72;51.54;99760.66;117411;1186;22479;-56
2022/04/24 00:15:42;;;;;;;29.20;11.00;;;;;;;11.67;51.50;99772.94;117332;1186;22924;-47
2022/04/24 00:18:10;;;;;;;23.70;10.10;;;;;;;11.62;51.52;99781.67;117324;1185;23445;-57
2022/04/24 00:20:42;;;;;;;21.20;10.50;;;;;;;11.53;51.47;99792.80;117294;1186;23040;-56
2022/04/24 00:23:11;;;;;;;26.10;10.90;;;;;;;11.45;51.45;99797.58;117423;1185;22680;-56
2022/04/24 00:25:39;;;;;;;28.30;11.10;;;;;;;11.35;51.41;99800.08;117348;1186;24226;-47
2022/04/24 00:28:10;;;;;;;26.70;11.90;;;;;;;11.27;51.48;99803.80;117295;1186;22626;-57
2022/04/24 00:30:42;;;;;;;39.40;12.30;;;;;;;11.23;51.43;99802.85;117188;1185;23555;-47
2022/04/24 00:33:10;;;;;;;29.50;11.30;;;;;;;11.20;51.61;99807.30;117349;1185;23472;-55
2022/04/24 00:35:41;;;;;;;30.00;11.00;;;;;;;11.16;51.41;99805.98;117326;1185;23592;-47
2022/04/24 00:38:13;;;;;;;26.20;10.50;;;;;;;11.12;51.56;99806.41;117390;1185;24282;-47
2022/04/24 00:40:46;;;;;;;25.10;10.40;;;;;;;11.10;51.61;99796.64;117298;1185;24280;-56
2022/04/24 00:43:15;;;;;;;26.30;10.50;;;;;;;11.09;51.54;99790.17;117354;1186;21893;-56
2022/04/24 00:45:45;;;;;;;20.00;10.40;;;;;;;11.07;51.48;99792.51;117326;1183;21855;-56
2022/04/24 00:48:13;;;;;;;20.50;9.50;;;;;;;11.03;51.51;99800.33;117328;1185;23450;-47
2022/04/24 00:51:01;;;;;;;20.80;9.90;;;;;;;10.99;51.50;99801.83;117305;1186;23458;-48
2022/04/24 00:53:32;;;;;;;27.10;13.30;;;;;;;10.95;51.32;99799.98;117264;1186;22150;-56
2022/04/24 00:56:03;;;;;;;27.40;12.70;;;;;;;10.92;51.50;99807.93;117336;1185;22101;-49
2022/04/24 00:58:32;;;;;;;27.80;11.30;;;;;;;10.90;51.68;99813.96;117395;1185;22924;-49
2022/04/24 01:01:00;;;;;;;23.50;9.80;;;;;;;10.86;51.52;99816.51;117333;1185;21854;-47
2022/04/24 01:03:37;;;;;;;26.50;11.00;;;;;;;10.79;51.45;99816.84;117180;1186;24160;-47
2022/04/24 01:06:15;;;;;;;22.40;10.50;;;;;;;10.72;51.41;99819.63;117268;1185;23534;-47
2022/04/24 01:08:44;;;;;;;22.60;9.10;;;;;;;10.66;51.32;99825.89;117348;1186;24243;-57
2022/04/24 01:11:13;;;;;;;30.50;11.90;;;;;;;10.62;51.57;99832.98;117358;1186;24223;-56
2022/04/24 01:13:43;;;;;;;29.50;11.80;;;;;;;10.59;51.62;99845.89;117337;1185;22967;-47
2022/04/24 01:16:12;;;;;;;23.20;10.80;;;;;;;10.53;51.55;99847.75;117380;1185;23472;-56
2022/04/24 01:18:40;;;;;;;24.00;10.70;;;;;;;10.47;51.44;99851.55;117357;1186;23458;-57
2022/04/24 01:21:12;;;;;;;31.00;12.80;;;;;;;10.39;51.51;99860.45;117250;1188;23555;-47
2022/04/24 01:23:49;;;;;;;29.70;11.40;;;;;;;10.32;51.54;99867.95;117293;1186;23682;-47
2022/04/24 01:26:17;;;;;;;28.90;11.40;;;;;;;10.28;51.60;99866.96;117337;1185;24155;-51
2022/04/24 01:28:46;;;;;;;30.00;10.90;;;;;;;10.26;51.64;99865.40;117351;1186;23449;-46
2022/04/24 01:31:18;;;;;;;30.60;12.40;;;;;;;10.26;51.89;99863.83;117314;1185;23442;-47
2022/04/24 01:33:47;;;;;;;22.00;11.80;;;;;;;10.27;51.76;99869.27;117342;1185;23436;-47
2022/04/24 01:36:15;;;;;;;28.00;12.20;;;;;;;10.28;51.73;99874.69;117350;1185;24156;-47
2022/04/24 01:38:45;;;;;;;33.50;12.00;;;;;;;10.27;51.83;99878.57;117373;1185;24166;-56
2022/04/24 01:41:13;;;;;;;28.10;12.00;;;;;;;10.27;51.72;99889.95;117005;1187;23487;-56
2022/04/24 01:43:42;;;;;;;32.10;13.10;;;;;;;10.28;51.90;99893.45;117386;1186;23576;-56
2022/04/24 01:46:19;;;;;;;37.10;15.30;;;;;;;10.29;51.98;99900.96;117298;1186;24614;-50
2022/04/24 01:48:50;;;;;;;30.50;14.90;;;;;;;10.23;52.09;99911.23;117394;1185;21861;-57
2022/04/24 01:51:18;;;;;;;30.30;14.60;;;;;;;10.19;52.23;99914.48;117363;1185;24168;-47
2022/04/24 01:53:50;;;;;;;27.20;14.50;;;;;;;10.20;52.27;99911.84;117279;1186;23492;-47
2022/04/24 01:56:18;;;;;;;35.90;16.20;;;;;;;10.20;52.06;99911.99;117335;1185;23526;-56
2022/04/24 01:58:47;;;;;;;30.90;17.20;;;;;;;10.21;52.20;99913.02;117317;1185;24155;-56
2022/04/24 02:01:17;;;;;;;36.90;16.80;;;;;;;10.25;52.19;99917.88;117318;1185;22042;-46
2022/04/24 02:03:46;;;;;;;36.90;18.10;;;;;;;10.29;52.38;99918.88;117174;1188;23579;-46
2022/04/24 02:06:15;;;;;;;30.90;15.20;;;;;;;10.31;52.43;99917.42;117356;1186;22918;-46
2022/04/24 02:08:46;;;;;;;;;;;;;;;10.35;52.31;99918.58;117339;1185;24145;-46
2022/04/24 02:11:16;;;;;;;38.60;18.70;;;;;;;10.38;52.57;99910.64;117258;1185;23446;-46
2022/04/24 02:13:45;;;;;;;35.90;17.20;;;;;;;10.40;52.56;99909.20;117276;1185;23516;-55
2022/04/24 02:16:13;;;;;;;33.80;16.60;;;;;;;10.43;52.60;99914.42;117377;1185;24168;-46
2022/04/24 02:18:46;;;;;;;33.30;16.10;;;;;;;10.46;52.53;99912.44;117295;1186;22164;-56
2022/04/24 02:21:15;;;;;;;32.10;18.30;;;;;;;10.48;52.58;99905.90;117338;1186;23471;-55
2022/04/24 02:23:43;;;;;;;34.10;17.90;;;;;;;10.53;52.48;99903.88;117138;1185;23448;-45
2022/04/24 02:26:14;;;;;;;38.50;19.50;;;;;;;10.61;52.53;99906.16;117331;1186;23445;-46
2022/04/24 02:28:44;;;;;;;36.00;19.70;;;;;;;10.72;52.71;99906.31;117480;1186;23449;-46
2022/04/24 02:31:12;;;;;;;28.20;19.30;;;;;;;10.81;52.81;99908.05;117394;1186;23445;-56
2022/04/24 02:33:42;;;;;;;31.00;18.50;;;;;;;10.90;52.72;99913.30;117376;1186;21842;-46
2022/04/24 02:36:10;;;;;;;31.50;18.50;;;;;;;10.97;52.83;99910.16;117357;1185;23445;-55
2022/04/24 02:38:39;;;;;;;35.70;22.20;;;;;;;11.03;52.79;99908.11;117337;1185;24153;-46
2022/04/24 02:41:08;;;;;;;33.70;19.80;;;;;;;11.07;52.81;99902.05;117371;1185;23478;-56
2022/04/24 02:43:40;;;;;;;31.50;19.90;;;;;;;11.10;52.85;99904.96;117293;1186;23472;-56
2022/04/24 02:46:11;;;;;;;37.20;22.10;;;;;;;11.13;52.82;99911.94;117277;1185;24168;-56
2022/04/24 02:48:39;;;;;;;33.40;21.70;;;;;;;11.17;52.98;99912.39;117359;1185;23446;-56
2022/04/24 02:51:11;;;;;;;37.30;23.20;;;;;;;11.22;53.14;99905.44;117397;1185;23474;-55
2022/04/24 02:53:41;;;;;;;43.90;22.90;;;;;;;11.27;53.06;99903.02;117329;1185;24162;-56
2022/04/24 02:56:11;;;;;;;33.90;23.50;;;;;;;11.33;53.07;99906.92;117313;1189;22305;-46
2022/04/24 02:58:44;;;;;;;29.60;20.70;;;;;;;11.38;53.19;99914.19;117341;1185;23595;-46
2022/04/24 03:01:12;;;;;;;38.50;22.60;;;;;;;11.42;53.13;99916.39;117379;1186;23468;-56
2022/04/24 03:03:42;;;;;;;32.70;21.20;;;;;;;11.45;53.16;99917.36;117352;1186;23472;-55
2022/04/24 03:06:14;;;;;;;36.00;23.30;;;;;;;11.48;53.22;99917.83;117258;1186;21846;-56
2022/04/24 03:08:42;;;;;;;34.60;23.10;;;;;;;11.53;53.21;99922.10;117329;1185;24165;-46
2022/04/24 03:11:12;;;;;;;32.60;22.10;;;;;;;11.56;53.21;99928.00;117386;1185;23484;-46
2022/04/24 03:13:41;;;;;;;35.50;23.90;;;;;;;11.59;53.24;99928.64;117321;1186;22164;-47
2022/04/24 03:16:09;;;;;;;31.00;23.40;;;;;;;11.60;53.14;99934.94;117353;1185;21847;-48
2022/04/24 03:18:40;;;;;;;36.30;23.00;;;;;;;11.62;53.31;99939.64;117336;1186;21843;-57
2022/04/24 03:21:08;;;;;;;36.90;23.40;;;;;;;11.65;53.21;99942.40;117382;1186;21848;-46
2022/04/24 03:23:39;;;;;;;29.80;23.10;;;;;;;11.68;53.23;99945.30;117296;1185;23548;-47
2022/04/24 03:26:14;;;;;;;29.00;21.80;;;;;;;11.72;53.18;99951.88;117300;1186;23496;-56
2022/04/24 03:28:43;;;;;;;36.70;24.70;;;;;;;11.75;53.19;99955.33;117292;1185;24701;-51
2022/04/24 03:31:12;;;;;;;36.90;23.40;;;;;;;11.76;53.22;99950.91;117372;1186;22771;-57
2022/04/24 03:33:41;;;;;;;33.70;23.10;;;;;;;11.76;53.27;99955.98;117347;1186;24227;-58
2022/04/24 03:36:15;;;;;;;35.00;22.00;;;;;;;11.78;53.23;99963.69;117264;1184;23464;-58
2022/04/24 03:38:43;;;;;;;32.10;22.70;;;;;;;11.80;53.43;99967.68;117340;1186;23510;-47
2022/04/24 03:41:12;;;;;;;33.40;23.50;;;;;;;11.82;53.31;99968.16;117312;1188;23445;-58
2022/04/24 03:43:46;;;;;;;31.90;21.70;;;;;;;11.88;53.28;99966.44;117390;1185;23584;-47
2022/04/24 03:46:14;;;;;;;31.60;21.50;;;;;;;11.94;53.26;99967.19;117329;1186;23590;-47
2022/04/24 03:48:42;;;;;;;32.00;22.60;;;;;;;11.97;53.24;99970.08;117341;1186;24158;-53
2022/04/24 03:51:12;;;;;;;33.90;22.00;;;;;;;11.99;53.42;99974.11;117384;1186;23476;-58
2022/04/24 03:53:40;;;;;;;29.70;20.80;;;;;;;12.01;53.35;99974.61;117337;1185;24155;-58
2022/04/24 03:56:08;;;;;;;32.50;22.30;;;;;;;12.06;53.29;99979.92;117373;1186;23442;-48
2022/04/24 03:58:41;;;;;;;47.30;32.50;;;;;;;12.10;53.36;99986.52;117317;1185;23448;-57
2022/04/24 04:01:11;;;;;;;41.10;28.20;;;;;;;12.15;53.48;99985.88;117380;1186;23535;-57
2022/04/24 04:03:46;;;;;;;37.00;25.00;;;;;;;12.22;53.39;99987.27;117315;1185;23494;-47
2022/04/24 04:06:15;;;;;;;39.10;26.00;;;;;;;12.25;53.53;99990.02;117382;1185;23475;-57
2022/04/24 04:08:44;;;;;;;39.60;25.10;;;;;;;12.29;53.54;100005.92;117353;1185;21850;-56
2022/04/24 04:11:12;;;;;;;36.40;27.50;;;;;;;12.36;53.56;100003.83;117332;1186;23442;-47
2022/04/24 04:13:41;;;;;;;38.90;26.90;;;;;;;12.43;53.45;100006.27;117378;1186;22546;-47
2022/04/24 04:16:12;;;;;;;35.40;26.50;;;;;;;12.46;53.46;100011.64;117369;1186;21846;-47
2022/04/24 04:18:40;;;;;;;35.90;26.10;;;;;;;12.49;53.47;100012.96;117313;1185;22924;-48
2022/04/24 04:21:08;;;;;;;36.20;26.30;;;;;;;12.51;53.40;100012.41;117341;1185;23484;-57
2022/04/24 04:23:39;;;;;;;36.60;25.10;;;;;;;12.54;53.56;100016.00;117319;1186;23545;-58
2022/04/24 04:26:07;;;;;;;40.70;24.40;;;;;;;12.61;53.59;100016.35;117364;1185;23950;-48
2022/04/24 04:28:35;;;;;;;33.50;23.60;;;;;;;12.66;53.57;100019.05;117292;1185;24136;-48
2022/04/24 04:31:08;;;;;;;33.70;25.10;;;;;;;12.68;53.65;100018.46;117290;1186;22941;-57
2022/04/24 04:33:41;;;;;;;33.50;25.30;;;;;;;12.73;53.77;100018.68;117338;1185;23467;-57
2022/04/24 04:36:09;;;;;;;31.80;23.20;;;;;;;12.79;53.83;100019.22;117298;1185;23092;-48
2022/04/24 04:38:38;;;;;;;27.30;21.80;;;;;;;12.86;53.77;100016.38;117323;1186;23449;-53
2022/04/24 04:41:07;;;;;;;28.00;22.00;;;;;;;12.93;53.79;100015.15;117314;1186;21994;-48
2022/04/24 04:43:36;;;;;;;28.50;21.50;;;;;;;13.01;53.99;100007.70;117174;1189;23015;-47
2022/04/24 04:46:05;;;;;;;31.40;22.40;;;;;;;13.11;54.05;100013.77;117354;1186;24165;-51
2022/04/24 04:48:35;;;;;;;27.80;20.10;;;;;;;13.21;53.88;100012.60;117346;1186;22617;-57
2022/04/24 04:51:03;;;;;;;30.70;20.50;;;;;;;13.29;53.76;100012.89;117323;1186;21881;-57
2022/04/24 04:53:31;;;;;;;23.90;19.50;;;;;;;13.39;53.90;100016.14;117350;1185;24146;-49
2022/04/24 04:56:01;;;;;;;26.80;19.30;;;;;;;13.46;53.83;100022.83;117375;1185;23582;-57
2022/04/24 04:58:30;;;;;;;23.60;17.80;;;;;;;13.53;53.98;100022.09;117338;1185;21853;-57
2022/04/24 05:01:00;;;;;;;23.30;18.90;;;;;;;13.65;54.03;100024.02;117337;1189;21882;-57
2022/04/24 05:03:42;;;;;;;23.90;17.70;;;;;;;13.78;54.15;100023.61;117282;1186;23551;-48
2022/04/24 05:06:30;;;;;;;24.00;18.60;;;;;;;13.94;54.26;100024.33;117300;1189;21837;-48
2022/04/24 05:08:58;;;;;;;21.00;16.90;;;;;;;14.12;54.36;100026.77;117295;1186;22800;-48
2022/04/24 05:11:31;;;;;;;25.00;16.60;;;;;;;14.26;54.21;100028.27;117320;1186;23468;-48
2022/04/24 05:14:01;;;;;;;23.40;16.40;;;;;;;14.39;54.11;100029.95;117323;1186;22091;-48
2022/04/24 05:16:36;;;;;;;20.60;14.80;;;;;;;14.54;54.43;100031.38;117285;1186;21897;-48
2022/04/24 05:19:07;;;;;;;19.20;13.70;;;;;;;14.66;54.31;100024.98;117232;1186;23548;-55
2022/04/24 05:21:42;;;;;;;19.20;14.70;;;;;;;14.84;54.41;100030.73;118797;1185;22959;-48
2022/04/24 05:24:11;;;;;;;19.20;14.30;;;;;;;14.98;54.36;100029.88;117268;1186;24156;-57
2022/04/24 05:26:40;;;;;;;19.40;13.40;;;;;;;15.10;54.31;100031.05;117342;1186;23516;-48
2022/04/24 05:29:08;;;;;;;16.30;11.90;;;;;;;15.20;54.25;100031.75;117363;1186;21856;-57
2022/04/24 05:31:38;;;;;;;17.20;12.70;;;;;;;15.33;54.45;100032.14;117300;1186;23551;-57
2022/04/24 05:34:07;;;;;;;17.20;13.00;;;;;;;15.50;54.58;100038.57;117334;1186;23573;-49
2022/04/24 05:36:36;;;;;;;17.00;11.10;;;;;;;15.72;54.60;100035.98;117265;1186;21865;-57
2022/04/24 05:39:04;;;;;;;13.10;11.00;;;;;;;15.94;54.68;100035.48;118594;1184;22934;-48
2022/04/24 05:41:33;;;;;;;13.20;10.40;;;;;;;16.11;54.56;100034.61;117303;1185;21865;-49
2022/04/24 05:44:02;;;;;;;14.60;10.30;;;;;;;16.28;54.64;100032.02;117349;1186;23585;-48
2022/04/24 05:46:30;;;;;;;13.20;10.20;;;;;;;16.43;54.58;100036.48;117375;1185;23583;-48
2022/04/24 05:49:00;;;;;;;13.30;10.90;;;;;;;16.60;54.65;100036.66;117346;1185;23704;-56
2022/04/24 05:51:29;;;;;;;;;;;;;;;16.80;54.63;100039.55;117324;1186;21841;-57
2022/04/24 05:53:58;;;;;;;12.30;8.80;;;;;;;17.01;54.71;100041.84;117331;1185;23551;-56
2022/04/24 05:56:29;;;;;;;11.30;8.80;;;;;;;17.18;54.61;100044.66;117358;1184;21848;-48
2022/04/24 05:58:58;;;;;;;11.30;8.70;;;;;;;17.30;54.55;100043.19;117346;1185;23462;-56
2022/04/24 06:01:27;;;;;;;10.90;9.20;;;;;;;17.41;54.40;100045.21;117376;1186;22506;-47
2022/04/24 06:03:58;;;;;;;11.70;8.70;;;;;;;17.48;54.31;100050.33;117337;1188;23394;-56
2022/04/24 06:06:37;;;;;;;14.70;9.80;;;;;;;17.59;54.27;100053.59;117326;1186;23547;-53
2022/04/24 06:09:06;;;;;;;13.50;10.70;;;;;;;17.73;54.36;100055.43;117289;1185;24362;-56
2022/04/24 06:11:41;;;;;;;10.50;8.70;;;;;;;17.81;54.29;100056.27;117315;1185;24155;-55
2022/04/24 06:14:16;;;;;;;15.40;9.40;;;;;;;17.92;54.31;100057.04;117288;1186;23604;-48
2022/04/24 06:16:45;;;;;;;10.10;8.40;;;;;;;18.08;54.24;100059.29;117339;1177;24156;-56
2022/04/24 06:19:16;;;;;;;12.80;8.90;;;;;;;18.19;54.04;100058.96;117349;1184;21850;-48
2022/04/24 06:21:48;;;;;;;13.50;9.20;;;;;;;18.33;54.22;100060.59;117423;1186;22756;-57
2022/04/24 06:24:18;;;;;;;13.20;9.80;;;;;;;18.49;54.08;100061.73;117368;1186;22833;-49
2022/04/24 06:26:46;;;;;;;12.70;9.30;;;;;;;18.56;53.91;100065.08;117349;1186;22826;-48
2022/04/24 06:29:15;;;;;;;13.50;9.70;;;;;;;18.68;54.06;100060.23;117323;1186;23563;-49
2022/04/24 06:31:45;;;;;;;13.30;9.80;;;;;;;18.80;53.87;100057.66;117307;1185;24781;-57
2022/04/24 06:34:17;;;;;;;13.20;9.70;;;;;;;18.92;53.99;100056.17;117345;1185;22905;-48
2022/04/24 06:36:46;;;;;;;13.50;9.50;;;;;;;19.13;54.11;100058.67;117415;1185;24210;-57
2022/04/24 06:39:14;;;;;;;13.30;10.00;;;;;;;19.31;53.99;100058.75;117340;1189;23470;-56
2022/04/24 06:41:45;;;;;;;12.20;8.80;;;;;;;19.50;54.08;100058.11;117388;1186;21849;-58
2022/04/24 06:44:15;;;;;;;11.30;9.30;;;;;;;19.63;53.82;100054.91;117380;1185;23547;-58
2022/04/24 06:46:46;;;;;;;13.10;9.30;;;;;;;19.76;53.87;100058.61;117403;1186;23547;-49
2022/04/24 06:49:15;;;;;;;11.50;8.00;;;;;;;19.95;53.98;100055.48;117302;1186;23548;-49
2022/04/24 06:51:43;;;;;;;13.10;8.60;;;;;;;20.26;54.11;100048.53;117458;1186;23570;-58
2022/04/24 06:54:12;;;;;;;10.80;8.10;;;;;;;20.49;54.13;100052.04;117379;1186;23469;-50
2022/04/24 06:56:43;;;;;;;11.50;8.90;;;;;;;20.62;53.91;100053.74;117418;1186;22787;-49
2022/04/24 06:59:13;;;;;;;11.50;8.80;;;;;;;20.71;53.96;100055.22;117418;1186;21851;-58
2022/04/24 07:01:42;;;;;;;9.30;7.90;;;;;;;20.96;54.02;100052.33;117410;1186;21931;-58
2022/04/24 07:04:18;;;;;;;9.40;7.50;;;;;;;21.16;53.87;100056.40;117382;1185;24278;-50
2022/04/24 07:06:46;;;;;;;10.70;7.20;;;;;;;21.41;54.13;100053.44;117477;1186;24155;-50
2022/04/24 07:09:15;;;;;;;9.90;7.70;;;;;;;21.70;53.83;100054.52;117388;1185;22802;-50
2022/04/24 07:11:43;;;;;;;10.80;7.50;;;;;;;21.83;53.48;100051.21;117329;1186;23573;-50
2022/04/24 07:14:13;;;;;;;9.50;7.70;;;;;;;21.86;53.29;100050.81;117407;1186;22884;-50
2022/04/24 07:16:41;;;;;;;8.80;6.40;;;;;;;21.91;53.05;100052.84;117401;1184;22917;-49
2022/04/24 07:19:10;;;;;;;10.60;7.20;;;;;;;21.89;52.90;100057.05;117422;1185;23547;-49
2022/04/24 07:21:39;;;;;;;9.00;6.60;;;;;;;21.94;53.14;100062.45;117377;1185;22679;-58
2022/04/24 07:24:07;;;;;;;8.40;5.90;;;;;;;22.14;53.21;100063.69;117396;1186;23563;-52
2022/04/24 07:26:37;;;;;;;9.70;7.30;;;;;;;22.25;52.93;100059.02;117305;1186;23554;-59
2022/04/24 07:29:07;;;;;;;9.00;6.10;;;;;;;22.23;52.65;100055.43;117389;1185;23545;-58
2022/04/24 07:31:36;;;;;;;8.60;5.20;;;;;;;22.21;52.68;100055.70;117409;1185;24300;-58
2022/04/24 07:34:05;;;;;;;8.40;5.70;;;;;;;22.14;52.69;100054.89;117343;1185;21840;-56
2022/04/24 07:36:35;;;;;;;7.70;5.40;;;;;;;22.14;52.72;100056.01;117369;1186;21850;-50
2022/04/24 07:39:05;;;;;;;7.70;5.60;;;;;;;22.25;52.58;100054.90;117277;1186;22926;-49
2022/04/24 07:41:36;;;;;;;7.70;5.50;;;;;;;22.25;52.41;100057.97;117436;1186;22921;-49
2022/04/24 07:44:07;;;;;;;8.60;5.60;;;;;;;22.20;52.25;100061.48;117382;1188;21850;-49
2022/04/24 07:46:38;;;;;;;7.60;5.50;;;;;;;22.20;52.20;100058.63;117367;1186;23572;-49
2022/04/24 07:49:08;;;;;;;9.50;5.40;;;;;;;22.16;52.38;100062.82;117392;1185;22829;-50
2022/04/24 07:51:36;;;;;;;6.80;5.20;;;;;;;22.23;52.46;100065.58;117420;1186;23535;-49
2022/04/24 07:54:09;;;;;;;7.40;5.70;;;;;;;22.48;52.91;100065.23;117367;1186;21849;-50
2022/04/24 07:56:40;;;;;;;7.00;5.10;;;;;;;22.77;52.75;100067.58;117323;1186;22915;-50
2022/04/24 07:59:09;;;;;;;7.00;5.10;;;;;;;23.00;52.91;100062.61;117376;1186;22931;-49
2022/04/24 08:01:40;;;;;;;7.50;4.90;;;;;;;23.26;52.77;100062.59;117388;1189;21836;-49
2022/04/24 08:04:09;;;;;;;8.20;5.80;;;;;;;23.47;52.43;100065.45;117361;1183;21846;-49
2022/04/24 08:06:37;;;;;;;5.50;4.20;;;;;;;23.37;51.98;100065.11;117401;1185;21857;-50
2022/04/24 08:09:06;;;;;;;6.60;4.70;;;;;;;23.31;51.93;100065.51;117351;1186;22838;-49
2022/04/24 08:11:37;;;;;;;6.10;4.60;;;;;;;23.46;52.24;100060.48;117341;1186;23445;-50
2022/04/24 08:14:05;;;;;;;6.10;4.80;;;;;;;23.59;52.28;100055.30;117347;1185;21847;-50
2022/04/24 08:16:33;;;;;;;6.40;4.40;;;;;;;23.71;52.14;100052.25;117351;1185;23550;-50
2022/04/24 08:19:02;;;;;;;4.60;3.80;;;;;;;23.83;52.10;100047.27;117438;1186;22038;-50
2022/04/24 08:21:30;;;;;;;6.10;3.50;;;;;;;23.95;52.06;100047.33;117400;1185;21904;-50
2022/04/24 08:23:59;;;;;;;5.50;3.80;;;;;;;24.11;52.17;100044.17;117418;1186;22611;-49
2022/04/24 08:26:27;;;;;;;6.70;4.40;;;;;;;24.53;52.65;100039.95;117350;1186;23647;-50
2022/04/24 08:28:57;;;;;;;5.20;3.80;;;;;;;24.95;52.57;100038.59;118427;1185;23561;-58
2022/04/24 08:31:26;;;;;;;5.10;3.50;;;;;;;25.34;52.30;100038.57;117219;1186;23564;-58
2022/04/24 08:33:57;;;;;;;6.80;4.10;;;;;;;25.72;52.33;100040.20;117326;1186;21842;-49
2022/04/24 08:36:26;;;;;;;5.70;4.00;;;;;;;25.89;51.84;100041.22;117334;1185;23541;-58
2022/04/24 08:38:56;;;;;;;6.30;4.20;;;;;;;25.94;51.82;100037.59;117310;1185;23632;-50
2022/04/24 08:41:26;;;;;;;6.40;5.10;;;;;;;25.95;51.58;100037.48;117356;1185;23573;-57
2022/04/24 08:43:54;;;;;;;6.40;4.20;;;;;;;25.86;51.25;100041.77;117216;1185;23551;-58
2022/04/24 08:46:27;;;;;;;6.10;4.80;;;;;;;25.68;50.94;100045.20;117196;1185;22892;-50
2022/04/24 08:48:55;;;;;;;5.50;3.80;;;;;;;25.48;50.84;100048.66;117287;1185;22785;-50
2022/04/24 08:51:24;;;;;;;5.70;3.50;;;;;;;25.34;50.76;100048.67;117336;1185;22832;-50
2022/04/24 08:53:56;;;;;;;5.40;3.90;;;;;;;25.53;51.22;100045.33;117314;1186;21852;-50
2022/04/24 08:56:24;;;;;;;5.30;3.90;;;;;;;25.82;51.36;100048.98;117399;1186;22947;-51
2022/04/24 08:58:52;;;;;;;5.70;4.30;;;;;;;25.94;51.02;100054.11;117399;1186;23573;-53
2022/04/24 09:01:24;;;;;;;5.70;4.10;;;;;;;25.97;50.76;100056.52;117163;1189;21845;-51
2022/04/24 09:03:58;;;;;;;6.50;4.50;;;;;;;25.88;50.59;100057.83;117219;1185;22805;-50
2022/04/24 09:06:28;;;;;;;6.60;4.70;;;;;;;25.82;50.56;100063.30;117277;1185;23563;-50
2022/04/24 09:09:06;;;;;;;6.30;5.00;;;;;;;25.83;50.41;100062.14;117252;1186;21849;-50
2022/04/24 09:11:34;;;;;;;6.80;5.10;;;;;;;25.94;50.64;100055.16;117319;1185;22685;-50
2022/04/24 09:14:15;;;;;;;6.10;4.80;;;;;;;26.09;50.69;100051.99;119310;1186;22450;-52
2022/04/24 09:16:48;;;;;;;;;;;;;;;26.20;50.34;100053.25;118017;1185;21852;-57
2022/04/24 09:19:20;;;;;;;6.60;4.80;;;;;;;26.24;50.02;100050.17;117314;1186;21870;-58
2022/04/24 09:21:50;;;;;;;7.20;4.40;;;;;;;26.41;50.17;100054.00;117315;1186;23465;-49
2022/04/24 09:24:27;;;;;;;5.10;4.20;;;;;;;26.55;50.12;100054.09;117365;1186;22643;-51
2022/04/24 09:27:11;;;;;;;5.70;4.20;;;;;;;26.54;49.75;100052.92;117284;1186;21857;-52
2022/04/24 09:29:40;;;;;;;6.20;4.90;;;;;;;26.52;49.82;100055.98;117421;1186;21851;-50
2022/04/24 09:32:11;;;;;;;6.90;5.10;;;;;;;26.55;49.86;100054.10;117375;1185;23480;-50
2022/04/24 09:34:40;;;;;;;6.40;5.50;;;;;;;26.80;50.11;100057.25;117307;1186;22928;-51
2022/04/24 09:37:09;;;;;;;7.50;5.60;;;;;;;27.04;49.99;100059.29;117325;1186;22914;-51
2022/04/24 09:39:41;;;;;;;7.00;6.00;;;;;;;27.20;49.69;100061.17;117328;1186;21893;-51
2022/04/24 09:42:11;;;;;;;7.30;5.90;;;;;;;27.16;49.28;100061.70;117422;1186;22917;-58
2022/04/24 09:44:44;;;;;;;6.70;5.80;;;;;;;26.99;48.96;100070.02;117409;1186;23455;-50
2022/04/24 09:47:33;;;;;;;7.40;6.40;;;;;;;26.81;48.99;100072.95;117832;1186;22899;-58
2022/04/24 09:50:04;;;;;;;7.50;5.60;;;;;;;26.48;48.73;100074.11;117383;1185;23550;-51
2022/04/24 09:52:33;;;;;;;8.30;6.60;;;;;;;26.01;48.62;100069.88;117393;1185;23573;-51
2022/04/24 09:55:05;;;;;;;7.60;5.70;;;;;;;25.78;48.67;100071.74;117396;1186;23570;-57
2022/04/24 09:57:33;;;;;;;5.60;4.10;;;;;;;25.79;49.09;100071.10;117429;1185;23449;-57
2022/04/24 10:00:05;;;;;;;4.30;3.60;;;;;;;25.80;48.84;100073.04;117288;1186;22083;-51
2022/04/24 10:02:41;;;;;;;5.20;3.90;;;;;;;25.60;48.50;100074.94;117378;1185;23550;-50
2022/04/24 10:05:24;;;;;;;4.10;3.10;;;;;;;25.46;48.58;100075.91;117385;1185;23550;-57
2022/04/24 10:07:52;;;;;;;4.70;3.40;;;;;;;25.51;48.59;100082.67;117294;1189;22893;-57
2022/04/24 10:10:21;;;;;;;4.00;3.20;;;;;;;25.55;48.60;100081.69;117360;1186;22801;-50
2022/04/24 10:13:10;;;;;;;4.90;3.00;;;;;;;25.67;48.55;100082.16;117392;1186;23535;-51
2022/04/24 10:15:46;;;;;;;3.20;2.50;;;;;;;25.57;48.04;100086.34;117365;1186;23648;-50
2022/04/24 10:18:42;;;;;;;4.90;2.40;;;;;;;25.22;47.92;100081.69;117391;1184;23551;-51
2022/04/24 10:21:39;;;;;;;5.90;3.60;;;;;;;25.01;48.03;100079.96;117490;1186;23572;-51
2022/04/24 10:24:10;;;;;;;4.40;3.40;;;;;;;24.94;48.17;100079.89;117377;1186;22452;-51
2022/04/24 10:26:39;;;;;;;5.70;3.10;;;;;;;24.99;48.33;100079.35;117416;1186;24083;-50
2022/04/24 10:29:11;;;;;;;3.90;3.00;;;;;;;25.20;48.53;100076.67;117414;1186;22715;-50
2022/04/24 10:31:41;;;;;;;4.10;2.90;;;;;;;25.48;48.52;100078.23;117516;1185;21868;-51
2022/04/24 10:34:16;;;;;;;4.80;3.70;;;;;;;25.69;48.19;100075.13;117408;1186;22620;-50
2022/04/24 10:36:58;;;;;;;4.70;3.00;;;;;;;25.83;48.21;100077.77;117422;1185;21839;-51
2022/04/24 10:39:37;;;;;;;6.30;3.00;;;;;;;25.93;48.03;100075.04;117368;1185;22802;-50
2022/04/24 10:42:12;;;;;;;4.70;3.80;;;;;;;25.97;47.82;100072.54;117322;1185;21947;-50
2022/04/24 10:44:51;;;;;;;4.70;4.20;;;;;;;25.90;47.75;100071.44;117398;1184;21903;-51
2022/04/24 10:47:21;;;;;;;5.00;3.90;;;;;;;25.89;47.85;100067.77;117437;1188;21852;-49
2022/04/24 10:50:04;;;;;;;4.90;3.90;;;;;;;26.02;47.95;100066.20;117421;1185;22835;-58
2022/04/24 10:52:40;;;;;;;4.40;3.40;;;;;;;26.27;47.85;100064.86;117406;1185;24008;-58
2022/04/24 10:55:14;;;;;;;6.10;4.10;;;;;;;26.58;48.14;100061.25;117638;1186;22801;-57
2022/04/24 10:57:44;;;;;;;4.60;3.40;;;;;;;26.82;47.95;100061.36;117472;1186;22947;-51
2022/04/24 11:00:22;;;;;;;5.20;3.80;;;;;;;26.92;47.56;100065.61;117403;1186;23566;-50
2022/04/24 11:02:51;;;;;;;5.00;3.80;;;;;;;26.72;47.26;100065.77;117392;1186;24142;-52
2022/04/24 11:05:22;;;;;;;5.40;4.30;;;;;;;26.54;47.02;100064.23;117408;1186;21856;-59
2022/04/24 11:08:01;;;;;;;4.70;3.90;;;;;;;26.52;47.07;100059.59;117451;1184;22895;-59
2022/04/24 11:10:41;;;;;;;3.90;3.20;;;;;;;26.63;47.27;100061.86;117386;1184;22921;-52
2022/04/24 11:13:18;;;;;;;20.60;15.80;;;;;;;26.79;47.33;100064.65;117485;1184;23572;-51
2022/04/24 11:15:48;;;;;;;9.00;7.10;;;;;;;26.78;47.05;100062.77;117457;1184;22937;-57
2022/04/24 11:18:26;;;;;;;7.00;5.70;;;;;;;26.75;47.00;100058.02;117431;1186;21852;-52
2022/04/24 11:21:03;;;;;;;20.20;15.30;;;;;;;26.87;47.11;100060.41;117402;1186;23553;-51
2022/04/24 11:23:36;;;;;;;7.40;6.20;;;;;;;27.03;47.12;100058.53;117344;1184;21851;-51
2022/04/24 11:26:08;;;;;;;5.30;3.90;;;;;;;27.11;46.96;100056.05;117386;1186;21970;-51
2022/04/24 11:28:44;;;;;;;5.60;3.40;;;;;;;27.11;46.69;100056.51;117332;1185;23876;-58